Time;durP1;ratioP1;P1;durP2;ratioP2;P2;SDS_P1;SDS_P2;PMS_P1;PMS_P2;Temp;Humidity;BMP_temperature;BMP_pressure;BME280_temperature;BME280_humidity;BME280_pressure;Samples;Min_cycle;Max_cycle;Signal;HPM_P1;HPM_P2
2021/08/19 00:00:42;;;;;;;4.45;3.67;;;19.00;99.90;;;;;;4998890;28;20034;-80
2021/08/19 00:03:07;;;;;;;4.35;3.70;;;19.10;99.90;;;;;;4995629;28;20436;-80
2021/08/19 00:05:33;;;;;;;5.60;3.35;;;19.20;99.90;;;;;;4997933;28;20384;-80
2021/08/19 00:07:59;;;;;;;6.38;3.40;;;19.10;99.90;;;;;;4998630;28;20034;-80
2021/08/19 00:10:25;;;;;;;5.40;4.15;;;19.20;99.90;;;;;;4998426;28;20031;-80
2021/08/19 00:12:51;;;;;;;5.72;3.65;;;19.30;99.90;;;;;;4998432;28;20041;-80
2021/08/19 00:15:16;;;;;;;4.85;3.75;;;19.30;99.90;;;;;;4996243;28;20026;-80
2021/08/19 00:17:42;;;;;;;5.40;3.78;;;19.30;99.90;;;;;;4996340;28;20460;-80
2021/08/19 00:20:09;;;;;;;4.28;3.00;;;19.30;99.90;;;;;;4998972;28;20399;-80
2021/08/19 00:22:36;;;;;;;5.55;4.07;;;19.30;99.90;;;;;;4997742;28;20498;-80
2021/08/19 00:25:03;;;;;;;4.75;3.65;;;19.30;99.90;;;;;;4998925;28;20065;-80
2021/08/19 00:27:29;;;;;;;3.80;3.50;;;19.10;99.90;;;;;;4997164;28;20029;-80
2021/08/19 00:29:55;;;;;;;4.68;3.75;;;19.10;99.90;;;;;;4994171;28;20037;-80
2021/08/19 00:32:20;;;;;;;4.05;3.65;;;19.10;99.90;;;;;;4998665;28;20143;-80
2021/08/19 00:34:46;;;;;;;3.90;3.50;;;19.20;99.90;;;;;;4997169;28;20054;-80
2021/08/19 00:37:11;;;;;;;5.50;3.80;;;19.20;99.90;;;;;;4997892;28;20022;-80
2021/08/19 00:39:41;;;;;;;4.13;3.70;;;19.20;99.90;;;;;;4997915;28;20487;-80
2021/08/19 00:42:07;;;;;;;4.35;3.83;;;19.20;99.90;;;;;;4994429;28;20034;-81
2021/08/19 00:44:33;;;;;;;4.95;3.95;;;19.10;99.90;;;;;;4997527;28;20030;-81
2021/08/19 00:46:59;;;;;;;4.72;3.72;;;19.00;99.90;;;;;;4998028;28;20031;-80
2021/08/19 00:49:25;;;;;;;5.00;3.97;;;18.90;99.90;;;;;;4997674;28;20049;-80
2021/08/19 00:51:53;;;;;;;6.15;3.92;;;18.80;99.90;;;;;;4998054;28;20021;-80
2021/08/19 00:54:28;;;;;;;4.55;3.95;;;18.90;99.90;;;;;;4995894;28;20030;-80
2021/08/19 00:56:56;;;;;;;4.93;3.72;;;18.90;99.90;;;;;;4993749;28;20446;-80
2021/08/19 00:59:23;;;;;;;4.60;3.70;;;18.90;99.90;;;;;;4998372;28;20495;-80
2021/08/19 01:01:51;;;;;;;7.85;4.00;;;18.80;99.90;;;;;;4997548;28;20037;-80
2021/08/19 01:04:16;;;;;;;4.28;3.88;;;18.90;99.90;;;;;;4997468;28;20018;-80
2021/08/19 01:06:42;;;;;;;5.35;3.75;;;18.90;99.90;;;;;;4997414;28;20402;-80
2021/08/19 01:09:08;;;;;;;4.47;3.50;;;18.90;99.90;;;;;;4994492;28;20569;-80
2021/08/19 01:11:40;;;;;;;4.63;3.75;;;18.90;99.90;;;;;;4996324;28;20022;-80
2021/08/19 01:14:08;;;;;;;5.07;3.30;;;18.90;99.90;;;;;;4979514;28;20416;-80
2021/08/19 01:16:34;;;;;;;5.40;4.03;;;18.80;99.90;;;;;;4997415;28;20034;-80
2021/08/19 01:19:00;;;;;;;3.90;3.45;;;18.90;99.90;;;;;;4997565;28;20369;-80
2021/08/19 01:21:25;;;;;;;4.63;4.10;;;18.80;99.90;;;;;;4996459;28;20301;-80
2021/08/19 01:23:51;;;;;;;6.15;4.13;;;18.80;99.90;;;;;;4993253;28;20030;-80
2021/08/19 01:26:19;;;;;;;4.38;3.97;;;18.80;99.90;;;;;;4997588;28;20030;-80
2021/08/19 01:28:47;;;;;;;6.78;4.25;;;18.70;99.90;;;;;;4997137;28;20038;-80
2021/08/19 01:31:15;;;;;;;6.57;4.35;;;18.60;99.90;;;;;;4996888;28;20110;-80
2021/08/19 01:33:42;;;;;;;4.63;3.80;;;18.60;99.90;;;;;;4996949;28;20450;-80
2021/08/19 01:36:09;;;;;;;4.47;4.03;;;18.50;99.90;;;;;;4993837;28;20765;-80
2021/08/19 01:38:35;;;;;;;5.32;3.60;;;18.50;99.90;;;;;;4995619;28;20025;-80
2021/08/19 01:41:02;;;;;;;4.47;3.67;;;18.60;99.90;;;;;;4997292;28;20026;-80
2021/08/19 01:43:28;;;;;;;4.35;3.90;;;18.60;99.90;;;;;;4996680;28;20037;-80
2021/08/19 01:46:11;;;;;;;4.63;4.13;;;18.60;99.90;;;;;;4996564;28;20034;-80
2021/08/19 01:48:44;;;;;;;5.43;4.00;;;18.60;99.90;;;;;;4996575;28;20071;-80
2021/08/19 01:51:10;;;;;;;4.78;4.20;;;18.60;99.90;;;;;;4993396;28;20030;-80
2021/08/19 01:53:36;;;;;;;5.10;4.25;;;18.60;99.90;;;;;;4995444;28;20045;-80
2021/08/19 01:56:02;;;;;;;5.70;4.22;;;18.70;99.90;;;;;;4996767;28;20018;-80
2021/08/19 01:58:27;;;;;;;6.93;4.38;;;18.80;99.90;;;;;;4996562;28;20041;-80
2021/08/19 02:00:54;;;;;;;5.13;4.03;;;18.80;99.90;;;;;;4996379;28;20031;-80
2021/08/19 02:03:20;;;;;;;4.47;3.67;;;18.70;99.90;;;;;;4994491;28;20030;-80
2021/08/19 02:05:48;;;;;;;5.50;4.25;;;18.80;99.90;;;;;;4993824;28;20094;-80
2021/08/19 02:08:16;;;;;;;5.28;4.00;;;18.80;99.90;;;;;;4996244;28;20046;-80
2021/08/19 02:10:42;;;;;;;6.40;3.92;;;18.90;99.90;;;;;;4996336;28;20057;-80
2021/08/19 02:13:10;;;;;;;4.55;3.80;;;18.70;99.90;;;;;;4996053;28;20033;-80
2021/08/19 02:15:35;;;;;;;4.13;3.70;;;18.60;99.90;;;;;;4996704;28;20071;-80
2021/08/19 02:18:01;;;;;;;5.85;4.10;;;18.70;99.90;;;;;;4991935;28;20554;-80
2021/08/19 02:20:27;;;;;;;6.90;3.80;;;18.60;99.90;;;;;;5003885;28;20071;-80
2021/08/19 02:22:58;;;;;;;6.57;3.85;;;18.60;99.90;;;;;;4995984;28;20471;-80
2021/08/19 02:25:24;;;;;;;4.55;3.90;;;18.70;99.90;;;;;;4995830;28;20031;-80
2021/08/19 02:27:50;;;;;;;6.50;4.15;;;18.60;99.90;;;;;;4996186;28;20038;-80
2021/08/19 02:30:15;;;;;;;4.07;3.35;;;18.60;99.90;;;;;;4993585;28;20027;-80
2021/08/19 02:32:41;;;;;;;4.30;3.70;;;18.60;99.90;;;;;;4994468;28;20117;-80
2021/08/19 02:35:07;;;;;;;4.32;3.70;;;18.60;99.90;;;;;;4996156;28;20050;-80
2021/08/19 02:37:33;;;;;;;4.20;3.53;;;18.60;99.90;;;;;;4977645;28;20063;-80
2021/08/19 02:39:58;;;;;;;4.35;3.83;;;18.60;99.90;;;;;;4995635;28;20129;-80
2021/08/19 02:42:24;;;;;;;3.85;3.42;;;18.50;99.90;;;;;;4994934;28;20032;-80
2021/08/19 02:44:49;;;;;;;6.25;3.63;;;18.60;99.90;;;;;;4993191;28;20026;-80
2021/08/19 02:47:15;;;;;;;4.47;3.63;;;18.40;99.90;;;;;;4996186;28;20026;-80
2021/08/19 02:49:41;;;;;;;3.70;3.05;;;18.40;99.90;;;;;;4995775;28;20562;-80
2021/08/19 02:52:06;;;;;;;4.13;3.40;;;18.30;99.90;;;;;;4995650;28;20038;-80
2021/08/19 02:54:32;;;;;;;3.92;3.00;;;18.40;99.90;;;;;;4995935;28;20518;-80
2021/08/19 02:56:58;;;;;;;3.88;3.17;;;18.40;99.90;;;;;;4991628;28;20038;-80
2021/08/19 02:59:23;;;;;;;4.50;3.17;;;18.50;99.90;;;;;;4982456;28;20026;-80
2021/08/19 03:01:49;;;;;;;4.03;3.40;;;18.50;99.90;;;;;;4999589;28;20575;-80
2021/08/19 03:04:15;;;;;;;4.05;2.88;;;18.40;99.90;;;;;;5000398;28;20041;-80
2021/08/19 03:06:40;;;;;;;4.53;3.28;;;18.40;99.90;;;;;;4999113;28;20100;-80
2021/08/19 03:09:06;;;;;;;5.25;3.33;;;18.50;99.90;;;;;;4995665;28;20046;-80
2021/08/19 03:11:31;;;;;;;5.68;3.70;;;18.50;99.90;;;;;;4999429;28;20050;-80
2021/08/19 03:13:58;;;;;;;4.93;3.40;;;18.40;99.90;;;;;;4999424;28;20030;-80
2021/08/19 03:16:24;;;;;;;4.97;3.33;;;18.40;99.90;;;;;;4999942;28;20121;-80
2021/08/19 03:18:49;;;;;;;4.68;3.15;;;18.40;99.90;;;;;;4999699;28;20120;-80
2021/08/19 03:21:17;;;;;;;3.92;3.13;;;18.40;99.90;;;;;;4996374;28;20022;-80
2021/08/19 03:23:43;;;;;;;4.18;2.97;;;18.40;99.90;;;;;;4997254;28;20111;-80
2021/08/19 03:26:08;;;;;;;6.18;2.97;;;18.40;99.90;;;;;;5000026;28;20094;-80
2021/08/19 03:28:34;;;;;;;3.95;3.00;;;18.40;99.90;;;;;;4999047;28;20046;-80
2021/08/19 03:31:00;;;;;;;3.58;3.10;;;18.50;99.90;;;;;;4999314;28;20441;-80
2021/08/19 03:33:26;;;;;;;3.35;2.97;;;18.50;99.90;;;;;;4980519;28;20034;-80
2021/08/19 03:35:52;;;;;;;4.30;3.60;;;18.50;99.90;;;;;;4995569;28;20133;-80
2021/08/19 03:38:18;;;;;;;4.57;3.60;;;18.50;99.90;;;;;;4999682;28;20032;-80
2021/08/19 03:40:44;;;;;;;4.20;3.35;;;18.40;99.90;;;;;;4999423;28;20034;-80
2021/08/19 03:43:11;;;;;;;4.60;3.33;;;18.40;99.90;;;;;;4999052;28;20057;-80
2021/08/19 03:45:37;;;;;;;3.63;3.28;;;18.40;99.90;;;;;;4999376;28;20029;-80
2021/08/19 03:48:03;;;;;;;7.57;3.38;;;18.30;99.90;;;;;;4994719;28;20080;-80
2021/08/19 03:50:29;;;;;;;3.70;3.10;;;18.20;99.90;;;;;;4998927;28;20030;-80
2021/08/19 03:52:54;;;;;;;5.03;3.13;;;18.20;99.90;;;;;;4999070;28;20057;-80
2021/08/19 03:55:20;;;;;;;3.50;3.20;;;18.20;99.90;;;;;;4981597;28;20026;-80
2021/08/19 03:57:46;;;;;;;4.28;3.30;;;18.10;99.90;;;;;;4998589;28;20029;-81
2021/08/19 04:00:13;;;;;;;5.22;3.40;;;18.10;99.90;;;;;;4996138;28;20030;-80
2021/08/19 04:02:39;;;;;;;4.07;3.00;;;18.10;99.90;;;;;;4997319;28;20022;-80
2021/08/19 04:05:06;;;;;;;5.22;3.22;;;18.10;99.90;;;;;;4998895;28;20049;-80
2021/08/19 04:07:31;;;;;;;3.90;3.17;;;18.00;99.90;;;;;;4998369;28;20109;-80
2021/08/19 04:09:57;;;;;;;3.88;3.25;;;17.80;99.90;;;;;;4997104;28;20113;-80
2021/08/19 04:12:22;;;;;;;4.63;3.40;;;18.20;99.90;;;;;;4997362;28;20030;-80
2021/08/19 04:14:48;;;;;;;3.53;3.20;;;18.20;99.90;;;;;;4995642;28;20023;-81
2021/08/19 04:17:14;;;;;;;4.55;3.65;;;18.20;99.90;;;;;;4998956;28;20018;-80
2021/08/19 04:19:40;;;;;;;4.45;3.70;;;18.10;99.90;;;;;;4981302;28;20066;-80
2021/08/19 04:22:05;;;;;;;4.50;3.25;;;18.10;99.90;;;;;;4998166;28;20387;-80
2021/08/19 04:24:31;;;;;;;4.32;3.55;;;18.10;99.90;;;;;;4997995;28;20029;-80
2021/08/19 04:26:57;;;;;;;7.97;3.72;;;18.10;99.90;;;;;;4994557;28;20442;-80
2021/08/19 04:29:22;;;;;;;3.70;3.28;;;18.10;99.90;;;;;;4999089;28;20049;-80
2021/08/19 04:31:48;;;;;;;4.10;3.20;;;18.20;99.90;;;;;;4997984;28;20034;-80
2021/08/19 04:34:14;;;;;;;4.88;3.47;;;18.20;99.90;;;;;;4997765;28;20053;-80
2021/08/19 04:36:39;;;;;;;4.32;3.80;;;18.20;99.90;;;;;;4998354;28;20038;-79
2021/08/19 04:39:05;;;;;;;5.07;3.70;;;18.20;99.90;;;;;;4994200;28;20050;-80
2021/08/19 04:41:31;;;;;;;3.60;3.10;;;18.30;99.90;;;;;;4998328;28;20053;-80
2021/08/19 04:43:57;;;;;;;4.25;3.20;;;18.30;99.90;;;;;;4998199;28;20537;-80
2021/08/19 04:46:22;;;;;;;4.95;3.38;;;18.30;99.90;;;;;;4997909;28;20121;-80
2021/08/19 04:48:49;;;;;;;3.97;3.30;;;18.30;99.90;;;;;;4997034;28;20042;-80
2021/08/19 04:51:15;;;;;;;5.68;3.40;;;18.40;99.90;;;;;;4995393;28;20080;-80
2021/08/19 04:53:41;;;;;;;4.40;3.72;;;18.40;99.90;;;;;;4996100;28;20037;-80
2021/08/19 04:56:07;;;;;;;5.07;3.85;;;18.30;99.90;;;;;;4997957;28;20105;-80
2021/08/19 04:58:32;;;;;;;4.68;3.55;;;18.30;99.90;;;;;;4997458;28;20644;-80
2021/08/19 05:00:58;;;;;;;4.80;3.50;;;18.30;99.90;;;;;;4997774;28;20085;-80
2021/08/19 05:03:23;;;;;;;9.10;4.25;;;18.30;99.90;;;;;;4995695;28;20109;-80
2021/08/19 05:05:49;;;;;;;5.18;3.53;;;18.30;99.90;;;;;;4994506;28;20472;-79
2021/08/19 05:08:15;;;;;;;4.85;3.50;;;18.30;99.90;;;;;;4997872;28;20037;-81
2021/08/19 05:10:40;;;;;;;4.60;3.58;;;18.30;99.90;;;;;;4997718;28;20130;-80
2021/08/19 05:13:06;;;;;;;4.28;3.88;;;18.30;99.90;;;;;;4997420;28;20499;-80
2021/08/19 05:15:31;;;;;;;4.18;3.42;;;18.30;99.90;;;;;;4997129;28;20032;-80
2021/08/19 05:17:57;;;;;;;5.88;3.88;;;18.30;99.90;;;;;;4992905;28;20499;-80
2021/08/19 05:20:23;;;;;;;3.70;3.30;;;18.30;99.90;;;;;;4997533;28;20018;-80
2021/08/19 05:22:48;;;;;;;6.10;3.65;;;18.10;99.90;;;;;;4997361;28;20030;-80
2021/08/19 05:25:14;;;;;;;5.93;3.72;;;18.10;99.90;;;;;;4997010;28;20019;-80
2021/08/19 05:27:39;;;;;;;5.43;3.90;;;18.10;99.90;;;;;;4978956;28;20376;-80
2021/08/19 05:30:07;;;;;;;5.05;3.47;;;18.20;99.90;;;;;;4993201;28;20030;-80
2021/08/19 05:32:32;;;;;;;5.70;3.60;;;18.30;99.90;;;;;;4996367;28;20035;-79
2021/08/19 05:35:01;;;;;;;4.82;3.65;;;18.30;99.90;;;;;;4996715;28;20061;-80
2021/08/19 05:37:27;;;;;;;4.82;3.72;;;18.40;99.90;;;;;;4996682;28;20053;-80
2021/08/19 05:39:52;;;;;;;4.05;3.47;;;18.40;99.90;;;;;;4996584;28;20034;-80
2021/08/19 05:42:18;;;;;;;5.32;3.60;;;18.40;99.90;;;;;;4976703;28;20035;-85
2021/08/19 05:44:44;;;;;;;5.20;3.72;;;18.40;99.90;;;;;;4994253;28;20034;-81
2021/08/19 05:47:09;;;;;;;7.32;3.65;;;18.40;99.90;;;;;;4997178;28;20031;-83
2021/08/19 05:49:40;;;;;;;4.88;3.80;;;18.40;99.90;;;;;;4996466;28;20147;-82
2021/08/19 05:52:06;;;;;;;5.88;4.05;;;18.30;99.90;;;;;;4996459;28;20030;-82
2021/08/19 05:54:32;;;;;;;3.90;3.50;;;18.30;99.90;;;;;;4996929;28;20376;-83
2021/08/19 05:56:57;;;;;;;7.18;3.55;;;18.30;99.90;;;;;;4992446;28;20046;-82
2021/08/19 05:59:23;;;;;;;5.43;4.43;;;18.30;99.90;;;;;;4996533;28;20033;-82
2021/08/19 06:01:49;;;;;;;6.28;4.50;;;18.20;99.90;;;;;;4996707;28;20038;-83
2021/08/19 06:04:14;;;;;;;5.93;4.55;;;18.10;99.90;;;;;;4996590;28;20022;-81
2021/08/19 06:06:40;;;;;;;7.18;4.40;;;18.10;99.90;;;;;;4996228;28;20030;-81
2021/08/19 06:09:05;;;;;;;7.30;4.22;;;18.10;99.90;;;;;;4974810;28;20308;-81
2021/08/19 06:11:31;;;;;;;6.55;4.35;;;18.10;99.90;;;;;;4979719;28;20539;-81
2021/08/19 06:13:57;;;;;;;6.55;4.72;;;18.30;99.90;;;;;;4995667;28;20038;-81
2021/08/19 06:16:22;;;;;;;5.53;4.57;;;18.20;99.90;;;;;;4996275;28;20487;-81
2021/08/19 06:18:48;;;;;;;5.93;4.22;;;18.20;99.90;;;;;;4996365;28;20065;-81
2021/08/19 06:21:13;;;;;;;7.38;4.22;;;18.30;99.90;;;;;;4993221;28;20117;-81
2021/08/19 06:23:39;;;;;;;7.35;4.28;;;18.40;99.90;;;;;;4994989;28;20031;-80
2021/08/19 06:26:06;;;;;;;5.03;4.05;;;18.40;99.90;;;;;;4996316;28;20027;-81
2021/08/19 06:28:32;;;;;;;5.45;3.63;;;18.50;99.90;;;;;;4995877;28;20049;-81
2021/08/19 06:30:57;;;;;;;6.40;4.38;;;18.50;99.90;;;;;;4995850;28;20026;-81
2021/08/19 06:33:23;;;;;;;4.82;3.95;;;18.50;99.90;;;;;;4994126;28;20038;-81
2021/08/19 06:35:49;;;;;;;4.28;3.75;;;18.50;99.90;;;;;;4993152;28;20042;-81
2021/08/19 06:38:15;;;;;;;5.90;3.72;;;18.50;99.90;;;;;;4996677;28;20042;-80
2021/08/19 06:40:41;;;;;;;4.35;3.95;;;18.70;99.90;;;;;;4996233;28;20077;-81
2021/08/19 06:43:07;;;;;;;5.88;4.18;;;18.60;99.90;;;;;;4977389;28;20026;-81
2021/08/19 06:45:33;;;;;;;5.72;4.00;;;18.70;99.90;;;;;;4996280;28;20594;-80
2021/08/19 06:47:59;;;;;;;6.30;4.05;;;18.70;99.90;;;;;;4991472;28;20049;-81
2021/08/19 06:50:24;;;;;;;6.05;3.78;;;18.80;99.90;;;;;;4996241;28;20031;-82
2021/08/19 06:52:50;;;;;;;5.22;3.42;;;18.70;99.90;;;;;;4996069;28;20034;-81
2021/08/19 06:55:16;;;;;;;4.53;4.10;;;18.70;99.90;;;;;;4995600;28;20193;-81
2021/08/19 06:57:41;;;;;;;4.20;3.80;;;18.70;99.90;;;;;;4995527;28;20435;-81
2021/08/19 07:00:08;;;;;;;4.32;3.35;;;18.70;99.90;;;;;;4992184;28;20406;-81
2021/08/19 07:02:34;;;;;;;4.97;3.03;;;18.80;99.90;;;;;;4995600;28;20113;-79
2021/08/19 07:05:00;;;;;;;3.30;3.00;;;18.80;99.90;;;;;;4995626;28;20415;-80
2021/08/19 07:07:28;;;;;;;3.80;3.47;;;19.00;99.90;;;;;;4995613;28;20081;-81
2021/08/19 07:09:57;;;;;;;6.15;3.70;;;19.00;99.90;;;;;;4995561;28;20475;-81
2021/08/19 07:12:23;;;;;;;6.28;3.50;;;19.00;99.90;;;;;;4993661;28;20102;-81
2021/08/19 07:14:50;;;;;;;4.70;2.90;;;19.20;99.90;;;;;;4992762;28;20101;-81
2021/08/19 07:17:15;;;;;;;4.80;3.30;;;19.40;99.90;;;;;;4996571;28;20110;-81
2021/08/19 07:19:41;;;;;;;4.93;2.70;;;19.40;99.90;;;;;;4995701;28;20105;-81
2021/08/19 07:22:06;;;;;;;3.20;2.90;;;19.60;99.90;;;;;;4995133;28;20402;-82
2021/08/19 07:24:32;;;;;;;5.65;3.15;;;19.90;99.90;;;;;;4995517;28;20029;-82
2021/08/19 07:26:58;;;;;;;4.05;3.22;;;20.10;99.90;;;;;;4990978;28;20062;-80
2021/08/19 07:29:23;;;;;;;3.92;3.13;;;20.00;99.90;;;;;;4996156;28;20133;-80
2021/08/19 07:31:49;;;;;;;4.63;3.63;;;20.00;99.90;;;;;;4995477;28;20057;-80
2021/08/19 07:34:15;;;;;;;4.07;3.08;;;20.10;99.90;;;;;;4995342;28;20117;-81
2021/08/19 07:36:40;;;;;;;4.78;3.22;;;20.60;99.90;;;;;;4995027;28;20026;-82
2021/08/19 07:39:06;;;;;;;5.40;2.80;;;20.90;99.90;;;;;;4991890;28;20519;-82
2021/08/19 07:41:32;;;;;;;4.00;3.60;;;21.00;99.90;;;;;;4994817;28;20057;-82
2021/08/19 07:43:58;;;;;;;3.72;3.00;;;21.40;99.90;;;;;;4996935;28;20522;-81
2021/08/19 07:46:24;;;;;;;4.07;2.33;;;21.80;99.90;;;;;;4998978;28;20014;-81
2021/08/19 07:48:50;;;;;;;4.43;2.80;;;21.90;99.90;;;;;;4981036;28;20042;-82
2021/08/19 07:51:16;;;;;;;5.35;2.60;;;21.30;99.90;;;;;;4978968;28;20454;-82
2021/08/19 07:53:42;;;;;;;3.75;2.67;;;20.90;99.90;;;;;;4997048;28;20094;-82
2021/08/19 07:56:08;;;;;;;2.88;2.40;;;20.90;99.90;;;;;;4981094;28;20026;-81
2021/08/19 07:58:33;;;;;;;3.90;2.65;;;20.80;99.90;;;;;;4998312;28;20045;-81
2021/08/19 08:00:59;;;;;;;4.28;2.67;;;20.90;99.90;;;;;;4994118;28;20033;-82
2021/08/19 08:03:26;;;;;;;2.67;2.45;;;20.90;99.90;;;;;;4998370;28;20087;-81
2021/08/19 08:05:52;;;;;;;5.07;2.70;;;20.70;99.90;;;;;;4995368;28;20038;-81
2021/08/19 08:08:17;;;;;;;3.78;2.70;;;20.60;99.90;;;;;;4999037;28;20537;-81
2021/08/19 08:10:43;;;;;;;4.22;2.72;;;20.60;99.90;;;;;;4998437;28;20137;-81
2021/08/19 08:13:12;;;;;;;5.03;2.72;;;20.80;99.90;;;;;;4998280;28;20042;-82
2021/08/19 08:15:38;;;;;;;2.78;2.50;;;20.90;99.90;;;;;;4998991;28;20025;-82
2021/08/19 08:18:05;;;;;;;3.70;2.60;;;21.00;99.90;;;;;;4994442;28;20035;-81
2021/08/19 08:20:32;;;;;;;3.20;2.65;;;21.00;99.90;;;;;;4998018;28;20431;-81
2021/08/19 08:22:57;;;;;;;3.47;2.50;;;20.80;99.90;;;;;;4998457;28;20479;-81
2021/08/19 08:25:23;;;;;;;3.15;2.25;;;21.00;99.90;;;;;;4998004;28;20026;-82
2021/08/19 08:28:10;;;;;;;4.03;2.40;;;20.90;99.90;;;;;;4998319;28;20040;-81
2021/08/19 08:30:39;;;;;;;3.22;2.50;;;21.30;99.90;;;;;;4998281;28;20041;-81
2021/08/19 08:33:04;;;;;;;3.20;2.38;;;21.70;99.90;;;;;;4994776;28;20033;-82
2021/08/19 08:35:34;;;;;;;2.60;2.40;;;21.90;99.90;;;;;;4980893;28;20050;-81
2021/08/19 08:38:06;;;;;;;2.97;2.50;;;22.10;99.90;;;;;;4998191;28;20038;-79
2021/08/19 08:40:37;;;;;;;3.50;2.60;;;22.20;99.90;;;;;;4997538;28;20034;-81
2021/08/19 08:43:05;;;;;;;7.55;2.53;;;22.50;99.90;;;;;;4997472;28;20026;-80
2021/08/19 08:45:34;;;;;;;3.47;2.40;;;22.90;99.90;;;;;;4997588;28;20167;-82
2021/08/19 08:48:04;;;;;;;3.60;2.58;;;23.10;99.90;;;;;;5009780;28;20034;-82
2021/08/19 08:50:30;;;;;;;2.25;2.05;;;22.90;99.90;;;;;;5006483;28;20064;-82
2021/08/19 08:52:58;;;;;;;3.88;2.20;;;22.60;99.90;;;;;;4997841;28;20511;-82
2021/08/19 08:55:24;;;;;;;2.88;2.00;;;22.50;99.90;;;;;;4996417;28;20042;-82
2021/08/19 08:57:51;;;;;;;2.17;1.95;;;22.80;99.90;;;;;;4997836;28;20137;-81
2021/08/19 09:00:17;;;;;;;2.13;1.92;;;23.10;99.90;;;;;;4995369;28;20034;-82
2021/08/19 09:02:44;;;;;;;2.13;1.92;;;23.40;99.90;;;;;;4978561;28;20022;-81
2021/08/19 09:05:12;;;;;;;3.10;2.28;;;23.30;99.90;;;;;;4998437;28;20038;-81
2021/08/19 09:07:38;;;;;;;2.33;1.90;;;23.50;99.90;;;;;;4997303;28;20030;-81
2021/08/19 09:10:04;;;;;;;2.70;2.10;;;22.80;99.90;;;;;;4997658;28;20042;-82
2021/08/19 09:12:29;;;;;;;2.53;2.13;;;22.70;99.90;;;;;;4997210;28;20041;-80
2021/08/19 09:14:55;;;;;;;2.20;2.00;;;22.40;99.90;;;;;;4993897;28;20026;-84
2021/08/19 09:17:44;;;;;;;3.13;2.08;;;22.20;99.90;;;;;;4998176;28;20026;-80
2021/08/19 09:20:12;;;;;;;6.10;3.78;;;22.30;99.90;;;;;;4997522;28;20037;-81
2021/08/19 09:22:57;;;;;;;7.05;5.13;;;22.20;99.90;;;;;;4996825;28;20037;-80
2021/08/19 09:25:25;;;;;;;3.85;3.33;;;22.10;99.90;;;;;;4996971;28;20069;-81
2021/08/19 09:28:28;;;;;;;6.65;3.10;;;21.90;99.90;;;;;;4997521;28;20099;-81
2021/08/19 09:31:11;;;;;;;2.92;2.53;;;21.90;99.90;;;;;;4997445;28;20034;-81
2021/08/19 09:33:42;;;;;;;5.38;2.95;;;22.30;99.90;;;;;;4996924;28;20057;-80
2021/08/19 09:36:08;;;;;;;4.50;2.75;;;22.30;99.90;;;;;;4993503;28;20427;-82
2021/08/19 09:38:42;;;;;;;6.60;2.88;;;22.60;99.90;;;;;;4996571;28;20027;-82
2021/08/19 09:41:14;;;;;;;3.25;2.60;;;22.70;99.90;;;;;;4997455;28;20057;-82
2021/08/19 09:43:49;;;;;;;3.33;2.55;;;22.80;99.90;;;;;;4996946;28;20054;-81
2021/08/19 09:46:17;;;;;;;3.10;2.55;;;23.20;99.90;;;;;;4996841;28;20032;-81
2021/08/19 09:48:44;;;;;;;2.88;2.40;;;23.40;99.90;;;;;;4996767;28;20073;-81
2021/08/19 09:51:13;;;;;;;6.60;2.58;;;23.50;99.90;;;;;;4993692;28;20032;-80
2021/08/19 09:53:42;;;;;;;3.55;2.00;;;23.70;99.90;;;;;;4995243;28;20057;-82
2021/08/19 09:56:11;;;;;;;2.55;2.17;;;23.70;99.90;;;;;;4996870;28;20045;-82
2021/08/19 09:58:37;;;;;;;2.72;2.20;;;23.80;99.90;;;;;;4996942;28;20035;-81
2021/08/19 10:01:03;;;;;;;3.75;2.08;;;24.30;99.90;;;;;;4996956;28;20088;-82
2021/08/19 10:03:28;;;;;;;2.60;1.92;;;24.70;99.90;;;;;;4995783;28;20113;-81
2021/08/19 10:05:55;;;;;;;2.17;1.85;;;25.00;99.90;;;;;;4992372;28;20041;-82
2021/08/19 10:08:21;;;;;;;2.70;1.90;;;25.60;99.90;;;;;;4996919;28;20467;-81
2021/08/19 10:10:53;;;;;;;2.38;2.17;;;25.60;99.90;;;;;;4996948;28;20042;-80
2021/08/19 10:13:19;;;;;;;3.75;2.20;;;25.40;99.90;;;;;;4999651;28;20026;-81
2021/08/19 10:15:48;;;;;;;2.28;2.08;;;26.10;99.90;;;;;;4996216;28;20037;-87
2021/08/19 10:18:18;;;;;;;3.05;1.88;;;25.80;99.90;;;;;;4994246;28;20384;-86
2021/08/19 10:20:47;;;;;;;2.30;1.88;;;26.40;99.90;;;;;;4993963;28;20157;-86
2021/08/19 10:23:13;;;;;;;1.90;1.67;;;27.10;99.90;;;;;;4995799;28;20054;-85
2021/08/19 10:25:39;;;;;;;1.98;1.63;;;27.70;99.90;;;;;;4996457;28;20507;-86
2021/08/19 10:28:16;;;;;;;2.97;2.00;;;28.00;99.90;;;;;;4996297;28;20042;-86
2021/08/19 10:30:53;;;;;;;2.10;1.90;;;28.30;99.90;;;;;;4996721;28;20038;-83
2021/08/19 10:33:36;;;;;;;2.00;1.80;;;28.60;99.90;;;;;;4994012;28;20034;-86
2021/08/19 10:36:11;;;;;;;2.17;1.98;;;30.00;99.90;;;;;;4974631;28;20057;-87
2021/08/19 10:38:41;;;;;;;2.20;1.63;;;30.70;99.90;;;;;;5005460;28;20029;-87
2021/08/19 10:41:29;;;;;;;1.85;1.58;;;31.00;99.90;;;;;;4991667;28;20023;-85
2021/08/19 10:44:04;;;;;;;2.13;1.50;;;31.50;99.90;;;;;;4995968;28;20118;-87
2021/08/19 10:46:38;;;;;;;2.03;1.70;;;31.50;99.90;;;;;;4996648;28;20395;-87
2021/08/19 10:49:04;;;;;;;1.90;1.60;;;31.10;99.90;;;;;;4996013;28;20041;-84
2021/08/19 10:51:30;;;;;;;1.98;1.80;;;30.80;99.90;;;;;;4995038;28;20018;-83
2021/08/19 10:53:56;;;;;;;2.03;1.60;;;30.60;99.90;;;;;;4989561;28;20089;-83
2021/08/19 10:56:43;;;;;;;1.85;1.75;;;30.40;99.90;;;;;;4997010;28;20023;-84
2021/08/19 10:59:28;;;;;;;3.17;1.90;;;30.00;99.90;;;;;;4995600;28;20113;-83
2021/08/19 11:01:53;;;;;;;1.88;1.67;;;31.00;99.90;;;;;;4995334;28;20491;-83
2021/08/19 11:04:38;;;;;;;2.20;1.98;;;30.80;99.90;;;;;;4995119;28;20025;-83
2021/08/19 11:07:05;;;;;;;2.50;1.63;;;34.30;99.90;;;;;;4995699;28;20025;-86
2021/08/19 11:09:31;;;;;;;4.20;2.05;;;36.80;99.90;;;;;;4995964;28;20042;-83
2021/08/19 11:12:04;;;;;;;3.33;2.17;;;35.30;99.90;;;;;;4992309;28;20049;-82
2021/08/19 11:14:30;;;;;;;2.17;2.08;;;31.60;99.90;;;;;;5003451;28;20121;-83
2021/08/19 11:16:58;;;;;;;2.20;2.00;;;30.00;99.90;;;;;;4995822;28;20043;-82
2021/08/19 11:19:26;;;;;;;2.00;1.90;;;28.70;99.90;;;;;;4997467;28;20023;-81
2021/08/19 11:21:55;;;;;;;2.15;1.95;;;28.00;99.90;;;;;;4999808;28;20026;-81
2021/08/19 11:24:22;;;;;;;1.67;1.58;;;27.80;99.90;;;;;;4997646;28;20032;-81
2021/08/19 11:27:08;;;;;;;2.30;1.52;;;27.70;99.90;;;;;;4996545;28;20061;-81
2021/08/19 11:29:38;;;;;;;2.15;1.80;;;28.00;99.90;;;;;;5007539;28;20034;-81
2021/08/19 11:32:08;;;;;;;2.75;1.80;;;28.10;99.90;;;;;;4999863;28;20030;-81
2021/08/19 11:34:34;;;;;;;1.98;1.77;;;27.80;99.90;;;;;;4998575;28;20061;-82
2021/08/19 11:37:00;;;;;;;1.75;1.65;;;28.20;99.90;;;;;;4999507;28;20484;-82
2021/08/19 11:39:28;;;;;;;2.10;1.90;;;28.30;99.90;;;;;;4998067;28;20033;-82
2021/08/19 11:42:03;;;;;;;2.15;1.85;;;28.60;99.90;;;;;;4995624;28;20376;-82
2021/08/19 11:44:29;;;;;;;1.95;1.50;;;29.20;99.90;;;;;;5007001;28;20021;-82
2021/08/19 11:47:03;;;;;;;2.30;2.10;;;29.00;99.90;;;;;;4999072;28;20406;-82
2021/08/19 11:49:29;;;;;;;2.45;2.25;;;28.60;99.90;;;;;;4998291;28;20034;-81
2021/08/19 11:52:04;;;;;;;2.10;1.90;;;28.40;99.90;;;;;;4999256;28;20023;-82
2021/08/19 11:54:43;;;;;;;2.30;2.10;;;28.60;99.90;;;;;;4997999;28;20068;-82
2021/08/19 11:57:20;;;;;;;2.00;1.80;;;28.40;99.90;;;;;;4980897;28;20019;-82
2021/08/19 12:00:02;;;;;;;2.75;2.53;;;27.90;99.90;;;;;;4996925;28;20026;-82
2021/08/19 12:02:28;;;;;;;1.70;1.60;;;27.20;99.90;;;;;;5005698;28;20022;-82
2021/08/19 12:05:03;;;;;;;2.30;2.10;;;26.90;99.90;;;;;;4999365;28;20038;-81
2021/08/19 12:07:29;;;;;;;1.60;1.50;;;26.90;99.90;;;;;;4998524;28;20479;-81
2021/08/19 12:09:54;;;;;;;1.60;1.48;;;26.90;99.90;;;;;;4998812;28;20061;-81
2021/08/19 12:12:25;;;;;;;1.65;1.55;;;26.60;99.90;;;;;;4996722;28;20022;-82
2021/08/19 12:14:51;;;;;;;1.70;1.58;;;26.60;99.90;;;;;;4995536;28;20442;-83
2021/08/19 12:17:17;;;;;;;4.63;1.50;;;26.70;99.90;;;;;;4998745;28;20118;-82
2021/08/19 12:19:43;;;;;;;3.17;1.50;;;26.90;99.90;;;;;;4998840;28;20116;-82
2021/08/19 12:22:09;;;;;;;1.55;1.45;;;27.30;99.90;;;;;;4998610;28;20025;-82
2021/08/19 12:24:41;;;;;;;1.50;1.40;;;27.30;99.90;;;;;;4998384;28;20055;-82
2021/08/19 12:27:19;;;;;;;8.57;1.95;;;27.40;99.90;;;;;;4994510;28;20041;-82
2021/08/19 12:29:48;;;;;;;4.30;1.65;;;28.10;99.90;;;;;;4996061;28;20046;-82
2021/08/19 12:32:22;;;;;;;3.35;1.52;;;28.80;99.90;;;;;;4995874;28;20146;-82
2021/08/19 12:35:00;;;;;;;4.22;1.70;;;29.60;99.90;;;;;;4997766;28;20089;-82
2021/08/19 12:37:28;;;;;;;1.92;1.30;;;31.50;99.90;;;;;;4998440;28;20014;-83
2021/08/19 12:39:54;;;;;;;2.17;1.17;;;31.40;99.90;;;;;;4997869;28;20458;-82
2021/08/19 12:42:20;;;;;;;1.50;1.40;;;31.20;99.90;;;;;;4996680;28;20026;-82
2021/08/19 12:45:07;;;;;;;1.27;1.17;;;33.90;99.90;;;;;;4995697;28;20085;-82
2021/08/19 12:47:38;;;;;;;2.20;1.33;;;36.00;99.90;;;;;;4997631;28;20058;-82
2021/08/19 12:50:04;;;;;;;1.90;1.30;;;34.70;99.90;;;;;;4998122;28;20041;-82